Terminal Aerodrome Forecast
Issued by NWS Des Moines, IA

Home | Current Version | Previous Version | Text Only | Print | Product List | Glossary On
Versions: 1 2 3 4 5 6 7 8 9 10 11 12 13 14 15 16 17 18 19 20 21 22 23 24
000
FTUS43 KDMX 052335
TAFDSM
TAF
KDSM 052335Z 0600/0624 16013KT P6SM SCT120
     FM061300 18013KT P6SM SCT035 BKN100
     FM062100 23014KT P6SM VCTS SCT010 BKN025CB=

USA.gov is the U.S. government's official web portal to all federal, state and local government web resources and services.